createdAt,value
2019-03-02T00:02:25.576Z,20.73
2019-03-02T00:04:55.822Z,20.57
2019-03-02T00:07:26.500Z,21.17
2019-03-02T00:09:57.195Z,19.57
2019-03-02T00:12:28.855Z,20.57
2019-03-02T00:15:00.359Z,21.07
2019-03-02T00:17:31.193Z,21.03
2019-03-02T00:20:02.038Z,19.50
2019-03-02T00:22:32.307Z,20.33
2019-03-02T00:25:04.357Z,18.93
2019-03-02T00:27:35.043Z,19.40
2019-03-02T00:30:06.104Z,19.37
2019-03-02T00:32:37.140Z,19.80
2019-03-02T00:35:08.253Z,21.13
2019-03-02T00:37:39.012Z,22.27
2019-03-02T00:40:09.589Z,18.83
2019-03-02T00:42:40.243Z,20.00
2019-03-02T00:45:14.125Z,19.67
2019-03-02T00:47:43.694Z,19.80
2019-03-02T00:50:14.571Z,20.47
2019-03-02T00:52:45.086Z,20.00
2019-03-02T00:55:15.534Z,20.93
2019-03-02T00:57:46.000Z,19.10
2019-03-02T01:00:16.824Z,18.63
2019-03-02T01:02:47.777Z,19.80
2019-03-02T01:05:18.339Z,19.40
2019-03-02T01:07:49.036Z,18.17
2019-03-02T01:10:22.630Z,18.07
2019-03-02T01:12:51.734Z,18.77
2019-03-02T01:15:22.287Z,19.03
2019-03-02T01:17:53.314Z,21.10
2019-03-02T01:20:24.945Z,24.30
2019-03-02T01:22:55.905Z,21.80
2019-03-02T01:25:26.425Z,22.50
2019-03-02T01:27:56.975Z,24.33
2019-03-02T01:30:29.948Z,24.23
2019-03-02T01:32:59.826Z,24.77
2019-03-02T01:35:30.569Z,24.90
2019-03-02T01:38:01.107Z,25.47
2019-03-02T01:40:31.652Z,26.60
2019-03-02T01:43:04.933Z,27.17
2019-03-02T01:45:34.622Z,26.17
2019-03-02T01:48:05.018Z,27.10
2019-03-02T01:50:35.432Z,26.03
2019-03-02T01:53:09.902Z,25.37
2019-03-02T01:55:38.993Z,24.90
2019-03-02T01:58:09.474Z,23.77
2019-03-02T02:00:40.065Z,22.00
2019-03-02T02:03:12.097Z,23.50
2019-03-02T02:05:43.144Z,23.40
2019-03-02T02:08:14.082Z,24.43
2019-03-02T02:10:44.577Z,22.10
2019-03-02T02:13:14.938Z,23.80
2019-03-02T02:15:45.510Z,21.73
2019-03-02T02:18:16.033Z,23.93
2019-03-02T02:20:46.811Z,21.73
2019-03-02T02:23:19.209Z,20.87
2019-03-02T02:25:49.713Z,20.70
2019-03-02T02:28:20.222Z,20.33
2019-03-02T02:30:50.796Z,18.60
2019-03-02T02:33:21.595Z,19.50
2019-03-02T02:35:52.555Z,19.73
2019-03-02T02:38:23.613Z,20.53
2019-03-02T02:40:54.366Z,20.93
2019-03-02T02:43:25.077Z,19.60
2019-03-02T02:45:55.988Z,19.30
2019-03-02T02:48:31.206Z,20.37
2019-03-02T02:50:59.341Z,21.30
2019-03-02T02:53:33.314Z,20.10
2019-03-02T02:56:03.995Z,19.60
2019-03-02T02:58:34.446Z,19.10
2019-03-02T03:01:07.035Z,19.47
2019-03-02T03:03:39.262Z,20.70
2019-03-02T03:06:10.108Z,20.50
2019-03-02T03:09:09.632Z,19.60
2019-03-02T03:11:43.723Z,19.87
2019-03-02T03:14:10.165Z,20.90
2019-03-02T03:16:40.696Z,19.90
2019-03-02T03:19:11.656Z,20.30
2019-03-02T03:21:42.109Z,21.53
2019-03-02T03:24:12.926Z,21.10
2019-03-02T03:26:45.410Z,20.40
2019-03-02T03:29:15.980Z,23.40
2019-03-02T03:31:46.798Z,21.97
2019-03-02T03:34:29.226Z,22.30
2019-03-02T03:36:50.606Z,21.60
2019-03-02T03:39:21.342Z,21.70
2019-03-02T03:41:52.408Z,22.27
2019-03-02T03:44:26.392Z,20.73
2019-03-02T03:46:56.065Z,22.63
2019-03-02T03:49:29.997Z,23.70
2019-03-02T03:52:04.055Z,23.40
2019-03-02T03:54:34.540Z,25.97
2019-03-02T03:57:05.117Z,27.43
2019-03-02T03:59:35.748Z,28.97
2019-03-02T04:02:06.974Z,28.57
2019-03-02T04:04:37.999Z,29.83
2019-03-02T04:07:08.745Z,31.23
2019-03-02T04:09:42.885Z,30.07
2019-03-02T04:12:12.204Z,32.13
2019-03-02T04:14:42.811Z,30.20
2019-03-02T04:17:13.284Z,31.20
2019-03-02T04:19:43.785Z,28.70
2019-03-02T04:22:15.231Z,27.33
2019-03-02T04:24:46.281Z,26.43
2019-03-02T04:27:17.222Z,27.33
2019-03-02T04:29:49.869Z,26.30
2019-03-02T04:32:27.083Z,27.67
2019-03-02T04:34:54.307Z,25.70
2019-03-02T04:37:25.402Z,27.93
2019-03-02T04:39:57.446Z,28.30
2019-03-02T04:42:28.480Z,25.63
2019-03-02T04:45:01.609Z,27.63
2019-03-02T04:47:31.286Z,28.50
2019-03-02T04:50:01.994Z,30.10
2019-03-02T04:52:32.795Z,30.27
2019-03-02T04:55:03.563Z,29.13
2019-03-02T04:57:36.182Z,30.30
2019-03-02T05:00:09.248Z,29.30
2019-03-02T05:02:40.219Z,28.07
2019-03-02T05:05:11.207Z,26.37
2019-03-02T05:07:41.974Z,27.33
2019-03-02T05:10:13.215Z,25.47
2019-03-02T05:12:43.749Z,28.07
2019-03-02T05:15:17.672Z,26.90
2019-03-02T05:17:48.315Z,26.23
2019-03-02T05:20:20.125Z,26.37
2019-03-02T05:22:54.833Z,29.87
2019-03-02T05:25:24.403Z,28.37
2019-03-02T05:27:56.615Z,27.43
2019-03-02T05:30:30.462Z,27.23
2019-03-02T05:33:00.119Z,27.23
2019-03-02T05:35:30.563Z,28.53
2019-03-02T05:38:01.302Z,27.37
2019-03-02T05:40:31.926Z,29.00
2019-03-02T05:43:02.616Z,25.97
2019-03-02T05:45:33.256Z,29.80
2019-03-02T05:48:04.873Z,27.93
2019-03-02T05:50:35.555Z,29.67
2019-03-02T05:53:05.948Z,29.80
2019-03-02T05:55:36.747Z,29.57
2019-03-02T05:58:07.196Z,30.63
2019-03-02T06:00:38.944Z,31.07
2019-03-02T06:03:09.825Z,30.00
2019-03-02T06:05:40.375Z,30.10
2019-03-02T06:08:11.003Z,33.57
2019-03-02T06:10:41.471Z,30.30
2019-03-02T06:13:12.153Z,31.77
2019-03-02T06:15:43.265Z,32.23
2019-03-02T06:18:14.832Z,33.07
2019-03-02T06:20:45.416Z,33.00
2019-03-02T06:23:15.820Z,31.47
2019-03-02T06:25:46.653Z,29.33
2019-03-02T06:28:19.625Z,29.80
2019-03-02T06:30:50.076Z,34.43
2019-03-02T06:33:33.174Z,31.00
2019-03-02T06:36:08.792Z,29.60
2019-03-02T06:38:38.277Z,29.30
2019-03-02T06:41:08.612Z,27.80
2019-03-02T06:43:39.214Z,27.43
2019-03-02T06:46:09.464Z,26.70
2019-03-02T06:48:41.491Z,27.90
2019-03-02T06:51:13.078Z,28.17
2019-03-02T06:53:43.665Z,25.87
2019-03-02T06:56:15.743Z,25.73
2019-03-02T06:58:46.848Z,19.93
2019-03-02T07:01:20.828Z,19.60
2019-03-02T07:03:49.401Z,19.40
2019-03-02T07:06:20.458Z,19.00
2019-03-02T07:08:50.777Z,16.40
2019-03-02T07:11:21.203Z,16.50
2019-03-02T07:13:53.507Z,16.30
2019-03-02T07:16:24.516Z,15.50
2019-03-02T07:19:17.608Z,14.93
2019-03-02T07:21:48.414Z,14.23
2019-03-02T07:24:19.075Z,14.93
2019-03-02T07:26:51.598Z,15.47
2019-03-02T07:29:22.168Z,14.47
2019-03-02T07:31:53.173Z,12.73
2019-03-02T07:34:28.579Z,13.43
2019-03-02T07:36:59.164Z,12.20
2019-03-02T07:39:32.726Z,10.43
2019-03-02T07:42:03.168Z,9.87
2019-03-02T07:44:33.621Z,9.13
2019-03-02T07:47:04.675Z,9.70
2019-03-02T07:49:35.197Z,10.00
2019-03-02T07:52:06.147Z,8.83
2019-03-02T07:54:38.804Z,9.03
2019-03-02T07:57:10.035Z,8.33
2019-03-02T07:59:40.350Z,10.00
2019-03-02T08:02:11.519Z,9.10
2019-03-02T08:04:42.315Z,9.93
2019-03-02T08:07:12.802Z,10.00
2019-03-02T08:09:43.339Z,9.20
2019-03-02T08:12:13.881Z,10.17
2019-03-02T08:14:47.768Z,8.83
2019-03-02T08:17:18.205Z,10.90
2019-03-02T08:19:51.737Z,10.70
2019-03-02T08:22:24.863Z,10.20
2019-03-02T08:24:57.976Z,9.17
2019-03-02T08:27:34.697Z,9.93
2019-03-02T08:30:07.583Z,11.60
2019-03-02T08:32:42.456Z,9.33
2019-03-02T08:35:17.206Z,11.40
2019-03-02T08:37:51.177Z,9.63
2019-03-02T08:40:24.638Z,9.80
2019-03-02T08:42:58.061Z,10.70
2019-03-02T08:45:32.394Z,9.57
2019-03-02T08:48:05.942Z,9.03
2019-03-02T08:50:40.297Z,9.87
2019-03-02T08:53:12.828Z,10.97
2019-03-02T08:55:43.640Z,11.20
2019-03-02T08:58:14.344Z,10.13
2019-03-02T09:00:45.044Z,9.30
2019-03-02T09:03:15.463Z,9.73
2019-03-02T09:05:51.422Z,9.90
2019-03-02T09:08:18.403Z,9.87
2019-03-02T09:10:50.133Z,8.53
2019-03-02T09:13:20.964Z,9.00
2019-03-02T09:15:51.707Z,8.80
2019-03-02T09:18:22.811Z,8.90
2019-03-02T09:20:53.336Z,10.70
2019-03-02T09:23:24.337Z,9.58
2019-03-02T09:25:54.888Z,9.77
2019-03-02T09:28:25.236Z,8.30
2019-03-02T09:30:58.757Z,8.73
2019-03-02T09:33:31.531Z,8.33
2019-03-02T09:36:01.949Z,11.10
2019-03-02T09:38:32.470Z,10.48
2019-03-02T09:41:03.017Z,12.10
2019-03-02T09:43:33.441Z,14.13
2019-03-02T09:46:04.054Z,31.40
2019-03-02T09:48:35.142Z,16.30
2019-03-02T09:51:06.152Z,11.73
2019-03-02T09:53:36.683Z,9.20
2019-03-02T09:56:07.212Z,13.43
2019-03-02T09:58:38.296Z,15.80
2019-03-02T10:01:08.902Z,14.13
2019-03-02T10:03:40.412Z,16.30
2019-03-02T10:06:11.351Z,12.90
2019-03-02T10:08:42.470Z,11.50
2019-03-02T10:11:13.131Z,12.83
2019-03-02T10:13:43.783Z,10.67
2019-03-02T10:16:14.974Z,14.05
2019-03-02T10:18:49.824Z,16.37
2019-03-02T10:21:18.742Z,15.03
2019-03-02T10:23:49.183Z,14.33
2019-03-02T10:26:20.921Z,11.53
2019-03-02T10:28:51.592Z,10.13
2019-03-02T10:31:23.598Z,11.30
2019-03-02T10:33:54.243Z,9.53
2019-03-02T10:36:25.692Z,11.80
2019-03-02T10:38:57.537Z,10.15
2019-03-02T10:41:28.117Z,10.70
2019-03-02T10:43:58.907Z,9.88
2019-03-02T10:46:29.750Z,12.53
2019-03-02T10:49:00.281Z,11.57
2019-03-02T10:51:33.992Z,10.40
2019-03-02T10:54:03.029Z,10.37
2019-03-02T10:56:33.363Z,17.53
2019-03-02T10:59:04.134Z,11.80
2019-03-02T11:01:35.038Z,15.17
2019-03-02T11:04:24.504Z,10.63
2019-03-02T11:07:13.690Z,13.33
2019-03-02T11:09:56.802Z,16.90
2019-03-02T11:12:52.216Z,13.33
2019-03-02T11:15:34.623Z,12.63
2019-03-02T11:18:23.793Z,12.60
2019-03-02T11:21:01.287Z,11.63
2019-03-02T11:23:54.720Z,10.60
2019-03-02T11:26:39.514Z,11.43
2019-03-02T11:29:50.582Z,10.30
2019-03-02T11:32:27.691Z,10.77
2019-03-02T11:35:16.753Z,10.33
2019-03-02T11:38:08.822Z,10.50
2019-03-02T11:41:04.877Z,11.90
2019-03-02T11:43:42.284Z,10.57
2019-03-02T11:46:40.811Z,10.50
2019-03-02T11:49:34.863Z,11.37
2019-03-02T11:52:35.019Z,10.10
2019-03-02T11:55:15.994Z,11.90
2019-03-02T11:58:03.835Z,13.67
2019-03-02T12:01:00.674Z,15.07
2019-03-02T12:03:41.932Z,10.40
2019-03-02T12:06:37.904Z,12.90
2019-03-02T12:09:31.740Z,9.63
2019-03-02T12:12:36.172Z,12.00
2019-03-02T12:15:20.657Z,10.50
2019-03-02T12:18:12.793Z,12.37
2019-03-02T12:21:04.647Z,10.63
2019-03-02T12:23:57.243Z,11.20
2019-03-02T12:26:49.681Z,11.20
2019-03-02T12:29:46.030Z,10.10
2019-03-02T12:32:32.334Z,11.17
2019-03-02T12:35:15.441Z,11.17
2019-03-02T12:38:11.677Z,11.50
2019-03-02T12:40:59.925Z,13.23
2019-03-02T12:43:45.445Z,24.83
2019-03-02T12:46:33.551Z,12.80
2019-03-02T12:49:34.816Z,15.00
2019-03-02T12:52:15.801Z,11.07
2019-03-02T12:55:10.680Z,11.27
2019-03-02T12:58:00.705Z,12.10
2019-03-02T13:00:48.917Z,9.90
2019-03-02T13:03:44.227Z,10.30
2019-03-02T13:06:20.685Z,12.10
2019-03-02T13:09:08.640Z,11.40
2019-03-02T13:11:50.531Z,11.30
2019-03-02T13:14:38.886Z,10.63
2019-03-02T13:17:22.569Z,9.03
2019-03-02T13:20:05.326Z,10.27
2019-03-02T13:22:54.990Z,11.00
2019-03-02T13:25:44.379Z,9.30
2019-03-02T13:28:36.966Z,10.80
2019-03-02T13:31:31.013Z,10.73
2019-03-02T13:34:20.154Z,9.90
2019-03-02T13:37:02.745Z,10.63
2019-03-02T13:39:51.117Z,9.70
2019-03-02T13:42:37.748Z,10.37
2019-03-02T13:45:46.484Z,10.60
2019-03-02T13:48:25.698Z,12.77
2019-03-02T13:51:14.165Z,10.73
2019-03-02T13:54:06.713Z,14.20
2019-03-02T13:57:04.845Z,12.70
2019-03-02T13:59:53.396Z,14.03
2019-03-02T14:02:42.452Z,11.33
2019-03-02T14:05:29.320Z,13.83
2019-03-02T14:08:26.596Z,11.30
2019-03-02T14:11:25.169Z,11.53
2019-03-02T14:14:08.174Z,11.40
2019-03-02T14:16:55.820Z,9.70
2019-03-02T14:19:48.669Z,11.10
2019-03-02T14:22:38.043Z,9.53
2019-03-02T14:25:30.824Z,10.17
2019-03-02T14:28:20.686Z,10.20
2019-03-02T14:31:19.903Z,8.50
2019-03-02T14:34:07.273Z,8.80
2019-03-02T14:37:14.814Z,9.97
2019-03-02T14:40:04.187Z,11.43
2019-03-02T14:42:46.179Z,9.80
2019-03-02T14:45:35.657Z,10.67
2019-03-02T14:48:35.382Z,10.13
2019-03-02T14:51:24.535Z,9.63
2019-03-02T14:54:08.987Z,10.60
2019-03-02T14:56:59.295Z,9.87
2019-03-02T14:59:52.550Z,10.50
2019-03-02T15:02:52.440Z,8.87
2019-03-02T15:05:40.206Z,10.77
2019-03-02T15:08:21.125Z,11.10
2019-03-02T15:11:07.731Z,11.80
2019-03-02T15:14:06.732Z,9.60
2019-03-02T15:16:43.497Z,11.57
2019-03-02T15:19:56.169Z,12.15
2019-03-02T15:22:48.772Z,9.28
2019-03-02T15:25:40.095Z,10.60
2019-03-02T15:28:33.902Z,11.80
2019-03-02T15:31:26.621Z,14.35
2019-03-02T15:34:18.761Z,11.48
2019-03-02T15:37:07.015Z,12.58
2019-03-02T15:39:54.996Z,17.42
2019-03-02T15:42:47.482Z,16.50
2019-03-02T15:45:26.282Z,17.40
2019-03-02T15:48:04.131Z,15.95
2019-03-02T15:50:44.191Z,16.90
2019-03-02T15:53:25.444Z,20.60
2019-03-02T15:56:04.913Z,25.97
2019-03-02T15:58:55.770Z,20.92
2019-03-02T16:01:33.453Z,20.27
2019-03-02T16:04:24.714Z,20.97
2019-03-02T16:07:20.551Z,21.30
2019-03-02T16:10:13.199Z,18.25
2019-03-02T16:12:53.344Z,24.30
2019-03-02T16:15:49.900Z,21.90
2019-03-02T16:18:39.693Z,24.47
2019-03-02T16:21:21.222Z,22.67
2019-03-02T16:24:19.898Z,23.75
2019-03-02T16:27:15.050Z,24.60
2019-03-02T16:30:10.159Z,30.60
2019-03-02T16:33:06.699Z,37.95
2019-03-02T16:36:15.121Z,36.85
2019-03-02T16:39:02.813Z,36.45
2019-03-02T16:41:50.581Z,37.25
2019-03-02T16:44:40.574Z,41.15
2019-03-02T16:47:28.818Z,35.80
2019-03-02T16:50:16.886Z,37.55
2019-03-02T16:53:08.812Z,32.67
2019-03-02T16:55:58.478Z,32.78
2019-03-02T16:59:05.999Z,33.05
2019-03-02T17:01:45.949Z,34.15
2019-03-02T17:04:46.093Z,35.85
2019-03-02T17:07:38.634Z,35.35
2019-03-02T17:10:34.706Z,44.42
2019-03-02T17:13:45.429Z,49.05
2019-03-02T17:16:28.411Z,43.85
2019-03-02T17:19:24.358Z,38.02
2019-03-02T17:22:18.050Z,39.95
2019-03-02T17:25:22.450Z,47.62
2019-03-02T17:28:23.698Z,52.33
2019-03-02T17:31:20.392Z,54.08
2019-03-02T17:34:15.463Z,51.08
2019-03-02T17:37:15.461Z,65.60
2019-03-02T17:40:05.722Z,80.60
2019-03-02T17:42:49.223Z,86.78
2019-03-02T17:45:38.481Z,65.25
2019-03-02T17:48:28.665Z,56.02
2019-03-02T17:51:17.830Z,45.40
2019-03-02T17:54:07.632Z,45.50
2019-03-02T17:57:05.776Z,42.17
2019-03-02T18:00:05.909Z,39.55
2019-03-02T18:02:52.217Z,44.85
2019-03-02T18:05:47.620Z,55.70
2019-03-02T18:08:48.551Z,60.67
2019-03-02T18:11:50.342Z,54.23
2019-03-02T18:14:30.488Z,41.85
2019-03-02T18:17:19.065Z,36.70
2019-03-02T18:19:50.374Z,46.53
2019-03-02T18:22:21.036Z,33.28
2019-03-02T18:24:51.652Z,31.02
2019-03-02T18:27:21.946Z,31.70
2019-03-02T18:29:53.816Z,27.20
2019-03-02T18:32:24.407Z,25.70
2019-03-02T18:34:56.791Z,23.12
2019-03-02T18:37:30.553Z,28.75
2019-03-02T18:40:03.055Z,35.80
2019-03-02T18:42:34.359Z,35.25
2019-03-02T18:45:04.988Z,26.90
2019-03-02T18:47:35.542Z,25.97
2019-03-02T18:50:12.801Z,22.52
2019-03-02T18:53:08.139Z,22.65
2019-03-02T18:55:38.702Z,26.87
2019-03-02T18:58:10.038Z,27.87
2019-03-02T19:00:44.293Z,23.92
2019-03-02T19:03:14.984Z,25.17
2019-03-02T19:05:50.243Z,27.82
2019-03-02T19:08:21.447Z,26.30
2019-03-02T19:10:51.989Z,25.40
2019-03-02T19:13:22.956Z,29.05
2019-03-02T19:15:55.143Z,32.23
2019-03-02T19:18:25.651Z,36.00
2019-03-02T19:20:58.223Z,32.00
2019-03-02T19:23:28.548Z,31.33
2019-03-02T19:26:00.664Z,26.17
2019-03-02T19:28:31.077Z,26.80
2019-03-02T19:31:01.957Z,30.37
2019-03-02T19:33:32.658Z,28.98
2019-03-02T19:36:04.198Z,36.68
2019-03-02T19:38:34.674Z,31.00
2019-03-02T19:41:05.560Z,28.95
2019-03-02T19:43:36.433Z,26.05
2019-03-02T19:46:07.357Z,25.37
2019-03-02T19:48:37.892Z,25.85
2019-03-02T19:51:08.590Z,24.90
2019-03-02T19:53:39.264Z,24.50
2019-03-02T19:56:09.617Z,21.93
2019-03-02T19:58:40.081Z,26.00
2019-03-02T20:01:10.680Z,33.38
2019-03-02T20:03:41.373Z,33.58
2019-03-02T20:06:11.996Z,33.08
2019-03-02T20:08:42.306Z,35.90
2019-03-02T20:11:13.436Z,34.18
2019-03-02T20:13:43.855Z,38.70
2019-03-02T20:16:14.815Z,34.35
2019-03-02T20:18:45.757Z,33.88
2019-03-02T20:21:16.827Z,34.83
2019-03-02T20:23:47.349Z,32.23
2019-03-02T20:26:18.121Z,26.00
2019-03-02T20:28:48.660Z,23.38
2019-03-02T20:31:19.367Z,22.67
2019-03-02T20:33:49.982Z,27.05
2019-03-02T20:36:20.963Z,32.17
2019-03-02T20:38:52.857Z,31.70
2019-03-02T20:41:23.475Z,36.23
2019-03-02T20:43:54.578Z,30.57
2019-03-02T20:46:25.006Z,37.42
2019-03-02T20:48:56.584Z,30.60
2019-03-02T20:51:27.608Z,28.60
2019-03-02T20:53:57.925Z,26.48
2019-03-02T20:56:29.071Z,22.30
2019-03-02T20:58:59.737Z,20.48
2019-03-02T21:01:30.351Z,41.63
2019-03-02T21:04:02.610Z,40.00
2019-03-02T21:06:33.183Z,31.30
2019-03-02T21:09:04.570Z,36.25
2019-03-02T21:11:36.605Z,37.35
2019-03-02T21:14:07.189Z,48.52
2019-03-02T21:16:37.572Z,40.95
2019-03-02T21:19:08.802Z,22.10
2019-03-02T21:21:39.175Z,15.75
2019-03-02T21:24:09.605Z,18.05
2019-03-02T21:26:41.159Z,20.92
2019-03-02T21:29:11.940Z,18.92
2019-03-02T21:31:42.454Z,18.00
2019-03-02T21:34:13.118Z,16.52
2019-03-02T21:36:43.875Z,16.07
2019-03-02T21:39:14.864Z,16.00
2019-03-02T21:41:45.295Z,15.23
2019-03-02T21:44:15.697Z,17.25
2019-03-02T21:46:46.786Z,16.15
2019-03-02T21:49:17.525Z,14.05
2019-03-02T21:51:48.422Z,13.70
2019-03-02T21:54:19.159Z,14.03
2019-03-02T21:56:52.004Z,13.75
2019-03-02T21:59:22.789Z,12.90
2019-03-02T22:01:53.696Z,13.18
2019-03-02T22:04:24.487Z,12.70
2019-03-02T22:06:55.610Z,24.35
2019-03-02T22:09:26.319Z,24.63
2019-03-02T22:11:56.855Z,23.10
2019-03-02T22:14:31.238Z,15.75
2019-03-02T22:17:03.349Z,13.60
2019-03-02T22:19:33.760Z,11.68
2019-03-02T22:22:04.736Z,13.43
2019-03-02T22:24:35.121Z,13.05
2019-03-02T22:27:05.562Z,12.70
2019-03-02T22:29:36.057Z,14.20
2019-03-02T22:32:06.522Z,14.00
2019-03-02T22:34:36.959Z,13.55
2019-03-02T22:37:07.734Z,13.00
2019-03-02T22:39:38.390Z,13.00
2019-03-02T22:42:08.946Z,22.27
2019-03-02T22:44:39.534Z,17.50
2019-03-02T22:47:10.695Z,16.95
2019-03-02T22:49:41.969Z,14.35
2019-03-02T22:52:12.830Z,15.83
2019-03-02T22:54:43.474Z,33.83
2019-03-02T22:57:13.988Z,33.80
2019-03-02T23:00:21.148Z,22.55
2019-03-02T23:02:49.224Z,18.27
2019-03-02T23:05:20.020Z,22.70
2019-03-02T23:07:50.659Z,20.60
2019-03-02T23:10:21.087Z,20.60
2019-03-02T23:12:52.067Z,25.50
2019-03-02T23:15:23.007Z,21.95
2019-03-02T23:17:53.755Z,17.95
2019-03-02T23:20:24.395Z,16.87
2019-03-02T23:22:54.992Z,13.45
2019-03-02T23:25:25.540Z,13.53
2019-03-02T23:27:56.074Z,12.80
2019-03-02T23:30:26.674Z,12.95
2019-03-02T23:32:57.430Z,14.90
2019-03-02T23:35:27.885Z,12.07
2019-03-02T23:37:58.690Z,16.42
2019-03-02T23:40:29.438Z,16.00
2019-03-02T23:43:00.128Z,14.13
2019-03-02T23:45:31.131Z,12.80
2019-03-02T23:48:02.154Z,12.25
2019-03-02T23:50:32.765Z,12.05
2019-03-02T23:53:03.656Z,13.35
2019-03-02T23:55:34.074Z,12.95
2019-03-02T23:58:06.086Z,11.97
